Weather at Detroit Metropolitan Wayne County Airport

Public forecast

Using degrees Fahrenheit for public forecast. Weather courtesy of forecast.io.

Current aviation weather report (METAR) for Detroit Metropolitan Wayne County Airport

Retrieved 2022/01/26 20:53 UTC (11 minutes ago):

KDTW 262053Z 24010KT 10SM FEW040 M08/M18 A3039 RMK AO2 SLP304 T10831183 56009

Aviation forecast (TAF) for Detroit Metropolitan Wayne County Airport

Retrieved 2022/01/26 18:40 UTC (2 hours ago):

TAF KDTW 261738Z 2618/2724 25007KT P6SM SCT045 FM262200 21008KT P6SM FEW045 FM270600 20010KT P6SM BKN200 FM271400 22013G22KT P6SM BKN060 FM272100 24011G18KT P6SM SCT028 BKN035